createdAt,value
2016-06-01T00:00:58.900Z,99.99
2016-06-01T00:01:59.059Z,99.99
2016-06-01T00:02:59.062Z,99.99
2016-06-01T00:03:59.064Z,99.99
2016-06-01T00:04:59.052Z,99.99
2016-06-01T00:05:59.054Z,99.99
2016-06-01T00:06:59.057Z,99.99
2016-06-01T00:07:59.060Z,99.99
2016-06-01T00:08:59.062Z,99.99
2016-06-01T00:09:59.087Z,99.99
2016-06-01T00:10:59.116Z,99.99
2016-06-01T00:11:59.128Z,99.99
2016-06-01T00:12:59.018Z,99.99
2016-06-01T00:13:59.186Z,99.99
2016-06-01T00:14:59.202Z,99.99
2016-06-01T00:15:59.213Z,99.99
2016-06-01T00:16:59.226Z,99.99
2016-06-01T00:17:59.238Z,99.99
2016-06-01T00:18:59.266Z,99.99
2016-06-01T00:19:59.258Z,99.99
2016-06-01T00:20:59.264Z,99.99
2016-06-01T00:21:59.255Z,99.99
2016-06-01T00:22:59.261Z,99.99
2016-06-01T00:24:00.408Z,99.99
2016-06-01T00:24:59.271Z,99.99
2016-06-01T00:25:59.275Z,99.99
2016-06-01T00:26:59.279Z,99.99
2016-06-01T00:27:59.267Z,99.8
2016-06-01T00:28:59.271Z,99.99
2016-06-01T00:29:59.274Z,99.99
2016-06-01T00:30:59.277Z,99.99
2016-06-01T00:31:59.280Z,99.99
2016-06-01T00:32:59.283Z,99.99
2016-06-01T00:33:59.286Z,99.99
2016-06-01T00:34:59.289Z,99.99
2016-06-01T00:35:59.292Z,99.99
2016-06-01T00:36:59.279Z,99.99
2016-06-01T00:37:59.281Z,99.99
2016-06-01T00:38:59.284Z,99.99
2016-06-01T00:39:59.131Z,99.99
2016-06-01T00:40:59.134Z,99.99
2016-06-01T00:41:59.308Z,99.99
2016-06-01T00:42:59.295Z,99.99
2016-06-01T00:43:59.282Z,99.99
2016-06-01T00:44:59.300Z,99.99
2016-06-01T00:45:59.303Z,99.99
2016-06-01T00:46:59.305Z,99.99
2016-06-01T00:47:59.293Z,99.99
2016-06-01T00:48:59.296Z,99.99
2016-06-01T00:49:59.299Z,99.99
2016-06-01T00:50:59.301Z,99.99
2016-06-01T00:51:59.304Z,99.99
2016-06-01T00:52:59.291Z,99.99
2016-06-01T00:53:59.152Z,99.99
2016-06-01T00:54:59.312Z,99.99
2016-06-01T00:55:59.315Z,99.99
2016-06-01T00:56:59.301Z,99.99
2016-06-01T00:57:59.304Z,99.99
2016-06-01T00:58:59.307Z,99.99
2016-06-01T00:59:59.293Z,99.99
2016-06-01T01:00:59.312Z,99.99
2016-06-01T01:01:59.299Z,99.99
2016-06-01T01:02:59.302Z,99.99
2016-06-01T01:03:59.304Z,99.99
2016-06-01T01:04:59.307Z,99.99
2016-06-01T01:05:59.153Z,99.99
2016-06-01T01:06:59.312Z,99.99
2016-06-01T01:07:59.315Z,99.99
2016-06-01T01:08:59.318Z,99.99
2016-06-01T01:09:59.305Z,99.99
2016-06-01T01:10:59.308Z,99.99
2016-06-01T01:11:59.311Z,99.99
2016-06-01T01:12:59.313Z,99.99
2016-06-01T01:13:59.316Z,99.99
2016-06-01T01:14:59.319Z,99.99
2016-06-01T01:15:59.322Z,99.99
2016-06-01T01:16:59.324Z,99.99
2016-06-01T01:17:59.311Z,99.99
2016-06-01T01:18:59.313Z,99.99
2016-06-01T01:19:59.316Z,99.99
2016-06-01T01:20:59.319Z,99.99
2016-06-01T01:21:59.322Z,99.99
2016-06-01T01:22:59.324Z,99.99
2016-06-01T01:23:59.327Z,99.99
2016-06-01T01:24:59.315Z,99.99
2016-06-01T01:25:59.176Z,99.99
2016-06-01T01:26:59.320Z,99.99
2016-06-01T01:27:59.323Z,99.99
2016-06-01T01:28:59.326Z,99.99
2016-06-01T01:29:59.328Z,99.99
2016-06-01T01:30:59.314Z,99.99
2016-06-01T01:31:59.317Z,99.99
2016-06-01T01:32:59.320Z,99.99
2016-06-01T01:33:59.339Z,99.99
2016-06-01T01:34:59.356Z,99.99
2016-06-01T01:35:59.328Z,99.99
2016-06-01T01:36:59.331Z,99.99
2016-06-01T01:37:59.334Z,99.99
2016-06-01T01:38:59.789Z,99.99
2016-06-01T01:39:59.339Z,99.99
2016-06-01T01:40:59.169Z,99.99
2016-06-01T01:41:59.344Z,99.99
2016-06-01T01:42:59.191Z,99.99
2016-06-01T01:43:59.350Z,99.99
2016-06-01T01:44:59.196Z,99.99
2016-06-01T01:45:59.339Z,99.99
2016-06-01T01:46:59.342Z,99.99
2016-06-01T01:47:59.345Z,99.99
2016-06-01T01:48:59.332Z,99.99
2016-06-01T01:49:59.350Z,99.99
2016-06-01T01:50:59.338Z,99.99
2016-06-01T01:51:59.340Z,99.99
2016-06-01T01:52:59.343Z,99.99
2016-06-01T01:53:59.220Z,99.99
2016-06-01T01:54:59.348Z,99.99
2016-06-01T01:55:59.335Z,99.99
2016-06-01T01:56:59.338Z,99.99
2016-06-01T01:57:59.340Z,99.99
2016-06-01T01:58:59.343Z,99.99
2016-06-01T01:59:59.190Z,99.99
2016-06-01T02:00:59.348Z,99.99
2016-06-01T02:01:59.351Z,99.99
2016-06-01T02:02:59.353Z,99.99
2016-06-01T02:03:59.357Z,99.99
2016-06-01T02:04:59.343Z,99.99
2016-06-01T02:05:59.346Z,99.99
2016-06-01T02:06:59.349Z,99.99
2016-06-01T02:07:59.351Z,99.99
2016-06-01T02:08:59.541Z,99.99
2016-06-01T02:09:59.357Z,99.99
2016-06-01T02:10:59.203Z,99.99
2016-06-01T02:11:59.347Z,99.99
2016-06-01T02:12:59.365Z,99.99
2016-06-01T02:13:59.352Z,99.99
2016-06-01T02:14:59.355Z,99.99
2016-06-01T02:15:59.358Z,99.99
2016-06-01T02:16:59.361Z,99.99
2016-06-01T02:17:59.363Z,99.99
2016-06-01T02:18:59.366Z,99.99
2016-06-01T02:19:59.368Z,99.99
2016-06-01T02:20:59.355Z,99.99
2016-06-01T02:21:59.374Z,99.99
2016-06-01T02:22:59.360Z,99.99
2016-06-01T02:23:59.411Z,99.99
2016-06-01T02:24:59.366Z,99.99
2016-06-01T02:25:59.368Z,99.99
2016-06-01T02:26:59.371Z,99.99
2016-06-01T02:27:59.374Z,99.99
2016-06-01T02:28:59.376Z,99.99
2016-06-01T02:29:59.224Z,99.99
2016-06-01T02:30:59.368Z,99.99
2016-06-01T02:31:59.369Z,99.99
2016-06-01T02:32:59.373Z,99.99
2016-06-01T02:33:59.375Z,99.99
2016-06-01T02:34:59.362Z,99.99
2016-06-01T02:35:59.365Z,99.99
2016-06-01T02:36:59.367Z,99.99
2016-06-01T02:37:59.369Z,99.99
2016-06-01T02:38:59.372Z,99.99
2016-06-01T02:39:59.375Z,99.99
2016-06-01T02:40:59.378Z,99.99
2016-06-01T02:41:59.381Z,99.99
2016-06-01T02:42:59.384Z,99.99
2016-06-01T02:43:59.370Z,99.99
2016-06-01T02:44:59.216Z,99.99
2016-06-01T02:45:59.391Z,99.99
2016-06-01T02:46:59.378Z,99.99
2016-06-01T02:47:59.428Z,99.99
2016-06-01T02:48:59.384Z,99.99
2016-06-01T02:49:59.386Z,99.99
2016-06-01T02:50:59.373Z,99.99
2016-06-01T02:51:59.376Z,99.99
2016-06-01T02:52:59.380Z,99.99
2016-06-01T02:53:59.585Z,99.99
2016-06-01T02:54:59.307Z,99.99
2016-06-01T02:55:59.403Z,99.99
2016-06-01T02:56:59.437Z,99.99
2016-06-01T02:57:59.392Z,99.99
2016-06-01T02:58:59.380Z,99.99
2016-06-01T02:59:59.382Z,99.99
2016-06-01T03:00:59.385Z,99.99
2016-06-01T03:01:59.388Z,99.99
2016-06-01T03:02:59.390Z,99.99
2016-06-01T03:03:59.392Z,99.99
2016-06-01T03:04:59.396Z,99.99
2016-06-01T03:05:59.382Z,99.99
2016-06-01T03:06:59.401Z,99.99
2016-06-01T03:07:59.404Z,99.99
2016-06-01T03:09:00.062Z,99.99
2016-06-01T03:09:59.393Z,99.99
2016-06-01T03:10:59.239Z,99.99
2016-06-01T03:11:59.399Z,99.99
2016-06-01T03:12:59.245Z,99.99
2016-06-01T03:13:59.404Z,99.99
2016-06-01T03:14:59.406Z,99.99
2016-06-01T03:15:59.394Z,99.99
2016-06-01T03:16:59.397Z,99.99
2016-06-01T03:17:59.400Z,99.99
2016-06-01T03:18:59.402Z,99.99
2016-06-01T03:19:59.249Z,99.99
2016-06-01T03:20:59.408Z,99.99
2016-06-01T03:21:59.254Z,99.99
2016-06-01T03:22:59.413Z,99.99
2016-06-01T03:23:59.275Z,99.99
2016-06-01T03:24:59.419Z,99.99
2016-06-01T03:25:59.405Z,99.99
2016-06-01T03:26:59.408Z,99.99
2016-06-01T03:27:59.411Z,99.99
2016-06-01T03:28:59.413Z,99.99
2016-06-01T03:29:59.416Z,99.99
2016-06-01T03:30:59.419Z,99.99
2016-06-01T03:31:59.422Z,99.99
2016-06-01T03:32:59.409Z,99.99
2016-06-01T03:33:59.426Z,99.99
2016-06-01T03:34:59.414Z,99.99
2016-06-01T03:35:59.417Z,99.99
2016-06-01T03:36:59.404Z,99.99
2016-06-01T03:37:59.407Z,99.99
2016-06-01T03:38:59.425Z,99.99
2016-06-01T03:39:59.411Z,99.99
2016-06-01T03:40:59.414Z,99.99
2016-06-01T03:41:59.261Z,99.99
2016-06-01T03:42:59.420Z,99.99
2016-06-01T03:43:59.423Z,99.99
2016-06-01T03:44:59.426Z,99.99
2016-06-01T03:45:59.427Z,99.99
2016-06-01T03:46:59.414Z,99.99
2016-06-01T03:47:59.417Z,99.99
2016-06-01T03:48:59.436Z,99.99
2016-06-01T03:49:59.266Z,99.99
2016-06-01T03:50:59.426Z,99.99
2016-06-01T03:51:59.427Z,99.99
2016-06-01T03:52:59.431Z,99.99
2016-06-01T03:53:59.637Z,99.99
2016-06-01T03:54:59.436Z,99.99
2016-06-01T03:55:59.424Z,99.99
2016-06-01T03:56:59.427Z,99.99
2016-06-01T03:57:59.272Z,99.99
2016-06-01T03:58:59.432Z,99.99
2016-06-01T03:59:59.418Z,99.99
2016-06-01T04:00:59.421Z,99.99
2016-06-01T04:01:59.424Z,99.99
2016-06-01T04:02:59.271Z,99.99
2016-06-01T04:03:59.430Z,99.99
2016-06-01T04:04:59.431Z,99.99
2016-06-01T04:05:59.435Z,99.99
2016-06-01T04:06:59.438Z,99.99
2016-06-01T04:07:59.440Z,99.99
2016-06-01T04:08:59.287Z,99.99
2016-06-01T04:09:59.446Z,99.99
2016-06-01T04:10:59.432Z,99.99
2016-06-01T04:11:59.435Z,99.99
2016-06-01T04:12:59.438Z,99.99
2016-06-01T04:13:59.440Z,99.99
2016-06-01T04:14:59.303Z,99.99
2016-06-01T04:15:59.290Z,99.99
2016-06-01T04:16:59.433Z,99.99
2016-06-01T04:17:59.436Z,99.99
2016-06-01T04:18:59.282Z,99.99
2016-06-01T04:19:59.442Z,99.99
2016-06-01T04:20:59.288Z,99.99
2016-06-01T04:21:59.447Z,99.99
2016-06-01T04:22:59.293Z,99.99
2016-06-01T04:23:59.452Z,99.99
2016-06-01T04:24:59.298Z,99.99
2016-06-01T04:25:59.442Z,99.99
2016-06-01T04:26:59.444Z,99.99
2016-06-01T04:27:59.447Z,99.99
2016-06-01T04:28:59.449Z,99.99
2016-06-01T04:29:59.453Z,99.99
2016-06-01T04:30:59.454Z,99.99
2016-06-01T04:31:59.443Z,99.99
2016-06-01T04:32:59.460Z,99.99
2016-06-01T04:33:59.448Z,99.99
2016-06-01T04:34:59.451Z,99.99
2016-06-01T04:35:59.296Z,99.99
2016-06-01T04:36:59.456Z,99.99
2016-06-01T04:37:59.459Z,99.99
2016-06-01T04:38:59.508Z,99.99
2016-06-01T04:39:59.464Z,99.99
2016-06-01T04:40:59.467Z,99.99
2016-06-01T04:41:59.297Z,99.99
2016-06-01T04:42:59.456Z,99.99
2016-06-01T04:43:59.303Z,99.99
2016-06-01T04:44:59.461Z,99.99
2016-06-01T04:45:59.464Z,99.99
2016-06-01T04:46:59.467Z,99.99
2016-06-01T04:47:59.453Z,99.99
2016-06-01T04:48:59.457Z,99.99
2016-06-01T04:49:59.459Z,99.99
2016-06-01T04:50:59.461Z,99.99
2016-06-01T04:51:59.465Z,99.99
2016-06-01T04:52:59.483Z,99.99
2016-06-01T04:53:59.469Z,99.99
2016-06-01T04:54:59.473Z,99.99
2016-06-01T04:55:59.475Z,99.99
2016-06-01T04:56:59.478Z,99.99
2016-06-01T04:57:59.465Z,99.99
2016-06-01T04:58:59.469Z,99.99
2016-06-01T04:59:59.314Z,99.99
2016-06-01T05:00:59.458Z,99.99
2016-06-01T05:01:59.476Z,99.99
2016-06-01T05:02:59.479Z,99.99
2016-06-01T05:03:59.482Z,99.99
2016-06-01T05:04:59.484Z,99.99
2016-06-01T05:05:59.471Z,99.99
2016-06-01T05:06:59.474Z,99.99
2016-06-01T05:07:59.477Z,99.99
2016-06-01T05:08:59.480Z,99.99
2016-06-01T05:09:59.482Z,99.99
2016-06-01T05:10:59.484Z,99.99
2016-06-01T05:11:59.471Z,99.99
2016-06-01T05:12:59.474Z,99.99
2016-06-01T05:13:59.476Z,99.99
2016-06-01T05:14:59.479Z,99.99
2016-06-01T05:15:59.482Z,99.99
2016-06-01T05:16:59.485Z,99.99
2016-06-01T05:17:59.487Z,99.99
2016-06-01T05:18:59.490Z,99.99
2016-06-01T05:19:59.337Z,99.99
2016-06-01T05:20:59.481Z,99.99
2016-06-01T05:21:59.483Z,99.99
2016-06-01T05:22:59.329Z,99.99
2016-06-01T05:23:59.348Z,99.99
2016-06-01T05:24:59.491Z,99.99
2016-06-01T05:25:59.494Z,99.99
2016-06-01T05:26:59.481Z,99.99
2016-06-01T05:27:59.483Z,99.99
2016-06-01T05:28:59.502Z,99.99
2016-06-01T05:29:59.489Z,99.99
2016-06-01T05:30:59.491Z,99.99
2016-06-01T05:31:59.494Z,99.99
2016-06-01T05:32:59.497Z,99.99
2016-06-01T05:33:59.499Z,99.99
2016-06-01T05:34:59.502Z,99.99
2016-06-01T05:35:59.505Z,99.99
2016-06-01T05:36:59.508Z,99.99
2016-06-01T05:37:59.352Z,99.99
2016-06-01T05:38:59.498Z,99.99
2016-06-01T05:39:59.500Z,99.99
2016-06-01T05:40:59.500Z,99.99
2016-06-01T05:41:59.503Z,99.99
2016-06-01T05:42:59.506Z,99.99
2016-06-01T05:43:59.351Z,99.99
2016-06-01T05:44:59.495Z,99.99
2016-06-01T05:45:59.498Z,99.99
2016-06-01T05:46:59.517Z,99.99
2016-06-01T05:47:59.503Z,99.99
2016-06-01T05:48:59.506Z,99.99
2016-06-01T05:49:59.493Z,99.99
2016-06-01T05:50:59.512Z,99.99
2016-06-01T05:51:59.498Z,99.99
2016-06-01T05:52:59.517Z,99.99
2016-06-01T05:53:59.910Z,99.99
2016-06-01T05:54:59.506Z,99.99
2016-06-01T05:55:59.353Z,99.99
2016-06-01T05:56:59.512Z,99.99
2016-06-01T05:57:59.514Z,99.99
2016-06-01T05:58:59.517Z,99.99
2016-06-01T05:59:59.520Z,99.99
2016-06-01T06:00:59.508Z,99.99
2016-06-01T06:01:59.369Z,99.99
2016-06-01T06:02:59.513Z,99.99
2016-06-01T06:03:59.516Z,99.99
2016-06-01T06:04:59.518Z,99.99
2016-06-01T06:05:59.520Z,99.99
2016-06-01T06:06:59.523Z,99.99
2016-06-01T06:07:59.526Z,99.96
2016-06-01T06:08:59.529Z,99.99
2016-06-01T06:09:59.374Z,99.99
2016-06-01T06:10:59.518Z,99.99
2016-06-01T06:11:59.380Z,99.99
2016-06-01T06:12:59.524Z,99.99
2016-06-01T06:13:59.527Z,99.99
2016-06-01T06:14:59.545Z,99.99
2016-06-01T06:15:59.531Z,99.99
2016-06-01T06:16:59.534Z,99.99
2016-06-01T06:17:59.537Z,99.99
2016-06-01T06:18:59.523Z,99.81
2016-06-01T06:19:59.526Z,99.91
2016-06-01T06:20:59.545Z,99.99
2016-06-01T06:21:59.531Z,99.99
2016-06-01T06:22:59.550Z,99.99
2016-06-01T06:24:00.195Z,99.99
2016-06-01T06:24:59.540Z,99.96
2016-06-01T06:25:59.543Z,99.99
2016-06-01T06:26:59.561Z,99.99
2016-06-01T06:27:59.548Z,99.77
2016-06-01T06:28:59.394Z,99.99
2016-06-01T06:29:59.539Z,99.99
2016-06-01T06:30:59.541Z,99.99
2016-06-01T06:31:59.543Z,99.99
2016-06-01T06:32:59.546Z,99.99
2016-06-01T06:33:59.549Z,99.99
2016-06-01T06:34:59.396Z,99.72
2016-06-01T06:35:59.555Z,99.48
2016-06-01T06:36:59.401Z,99.48
2016-06-01T06:37:59.560Z,99.68
2016-06-01T06:38:59.734Z,99.68
2016-06-01T06:39:59.549Z,99.48
2016-06-01T06:40:59.412Z,99.63
2016-06-01T06:41:59.555Z,99.05
2016-06-01T06:42:59.558Z,99.05
2016-06-01T06:43:59.404Z,98.67
2016-06-01T06:44:59.548Z,98.86
2016-06-01T06:45:59.565Z,99.2
2016-06-01T06:46:59.553Z,99.1
2016-06-01T06:47:59.571Z,98.72
2016-06-01T06:48:59.433Z,98.33
2016-06-01T06:49:59.561Z,98.53
2016-06-01T06:50:59.579Z,98.33
2016-06-01T06:51:59.567Z,98.05
2016-06-01T06:52:59.569Z,97.95
2016-06-01T06:53:59.571Z,97.66
2016-06-01T06:54:59.574Z,96.89
2016-06-01T06:55:59.592Z,96.89
2016-06-01T06:56:59.580Z,96.89
2016-06-01T06:57:59.583Z,96.7
2016-06-01T06:58:59.570Z,96.8
2016-06-01T06:59:59.588Z,96.7
2016-06-01T07:00:59.590Z,96.75
2016-06-01T07:01:59.593Z,96.89
2016-06-01T07:02:59.580Z,96.61
2016-06-01T07:03:59.583Z,96.03
2016-06-01T07:04:59.586Z,96.03
2016-06-01T07:05:59.589Z,96.42
2016-06-01T07:06:59.591Z,96.22
2016-06-01T07:07:59.593Z,96.22
2016-06-01T07:08:59.597Z,96.03
2016-06-01T07:09:59.599Z,96.03
2016-06-01T07:10:59.602Z,95.75
2016-06-01T07:11:59.588Z,95.65
2016-06-01T07:12:59.607Z,95.65
2016-06-01T07:13:59.594Z,95.65
2016-06-01T07:14:59.596Z,95.84
2016-06-01T07:15:59.615Z,95.75
2016-06-01T07:16:59.617Z,95.94
2016-06-01T07:17:59.605Z,95.46
2016-06-01T07:18:59.607Z,95.84
2016-06-01T07:19:59.610Z,95.46
2016-06-01T07:20:59.613Z,95.75
2016-06-01T07:21:59.647Z,95.84
2016-06-01T07:22:59.634Z,95.51
2016-06-01T07:23:59.620Z,95.98
2016-06-01T07:24:59.623Z,95.98
2016-06-01T07:25:59.626Z,95.79
2016-06-01T07:26:59.629Z,95.98
2016-06-01T07:27:59.616Z,95.41
2016-06-01T07:28:59.634Z,94.84
2016-06-01T07:29:59.637Z,94.93
2016-06-01T07:30:59.639Z,95.12
2016-06-01T07:31:59.627Z,94.93
2016-06-01T07:32:59.630Z,95.51
2016-06-01T07:33:59.633Z,95.51
2016-06-01T07:34:59.635Z,95.94
2016-06-01T07:35:59.638Z,95.36
2016-06-01T07:36:59.641Z,95.36
2016-06-01T07:37:59.643Z,95.36
2016-06-01T07:38:59.863Z,94.98
2016-06-01T07:39:59.491Z,94.59
2016-06-01T07:40:59.651Z,94.88
2016-06-01T07:41:59.638Z,94.64
2016-06-01T07:42:59.641Z,94.83
2016-06-01T07:43:59.660Z,94.26
2016-06-01T07:44:59.646Z,94.45
2016-06-01T07:45:59.664Z,94.31
2016-06-01T07:46:59.667Z,94.21
2016-06-01T07:47:59.654Z,93.96
2016-06-01T07:48:59.673Z,93.01
2016-06-01T07:49:59.660Z,93.15
2016-06-01T07:50:59.678Z,93.05
2016-06-01T07:51:59.509Z,92.57
2016-06-01T07:52:59.526Z,92.43
2016-06-01T07:53:59.686Z,91.66
2016-06-01T07:54:59.517Z,91.22
2016-06-01T07:55:59.676Z,90.55
2016-06-01T07:56:59.662Z,90.73
2016-06-01T07:57:59.525Z,89.53
2016-06-01T07:58:59.528Z,88.61
2016-06-01T07:59:59.686Z,88.32
2016-06-01T08:00:59.690Z,87.6
2016-06-01T08:01:59.691Z,86.82
2016-06-01T08:02:59.694Z,86.63
2016-06-01T08:03:59.697Z,86.1
2016-06-01T08:04:59.700Z,85.42
2016-06-01T08:05:59.702Z,84.41
2016-06-01T08:06:59.549Z,83.77
2016-06-01T08:07:59.708Z,83.96
2016-06-01T08:09:00.305Z,83.81
2016-06-01T08:09:59.713Z,82.75
2016-06-01T08:10:59.544Z,81.05
2016-06-01T08:11:59.718Z,80.22
2016-06-01T08:12:59.565Z,80.41
2016-06-01T08:13:59.724Z,79.64
2016-06-01T08:14:59.727Z,80.03
2016-06-01T08:15:59.730Z,79.58
2016-06-01T08:16:59.576Z,79.14
2016-06-01T08:17:59.751Z,78.46
2016-06-01T08:18:59.737Z,77.82
2016-06-01T08:19:59.740Z,77.28
2016-06-01T08:20:59.743Z,76.41
2016-06-01T08:21:59.746Z,74.32
2016-06-01T08:22:59.749Z,73.93
2016-06-01T08:23:59.595Z,74.32
2016-06-01T08:24:59.753Z,74.32
2016-06-01T08:25:59.757Z,74.6
2016-06-01T08:26:59.775Z,74.32
2016-06-01T08:27:59.762Z,74.16
2016-06-01T08:28:59.780Z,73.96
2016-06-01T08:29:59.767Z,72.99
2016-06-01T08:30:59.770Z,72.51
2016-06-01T08:31:59.773Z,72.51
2016-06-01T08:32:59.775Z,71.06
2016-06-01T08:33:59.777Z,70.96
2016-06-01T08:34:59.781Z,70.09
2016-06-01T08:35:59.783Z,70.18
2016-06-01T08:36:59.802Z,70.09
2016-06-01T08:37:59.789Z,69.47
2016-06-01T08:39:00.229Z,68.89
2016-06-01T08:39:59.810Z,69.02
2016-06-01T08:40:59.813Z,68.54
2016-06-01T08:41:59.815Z,67.76
2016-06-01T08:42:59.818Z,67.76
2016-06-01T08:43:59.821Z,68.15
2016-06-01T08:44:59.824Z,67.08
2016-06-01T08:45:59.826Z,66.34
2016-06-01T08:46:59.829Z,66.24
2016-06-01T08:47:59.832Z,65.56
2016-06-01T08:48:59.850Z,65.56
2016-06-01T08:49:59.868Z,65.56
2016-06-01T08:50:59.839Z,64.98
2016-06-01T08:51:59.857Z,66.14
2016-06-01T08:52:59.860Z,65.53
2016-06-01T08:54:00.098Z,65.63
2016-06-01T08:54:59.866Z,66.02
2016-06-01T08:55:59.868Z,66.47
2016-06-01T08:56:59.871Z,65.85
2016-06-01T08:57:59.874Z,66.14
2016-06-01T08:58:59.876Z,67.08
2016-06-01T08:59:59.878Z,67.76
2016-06-01T09:00:59.882Z,68.11
2016-06-01T09:01:59.884Z,68.21
2016-06-01T09:02:59.903Z,68.3
2016-06-01T09:03:59.890Z,68.79
2016-06-01T09:04:59.892Z,68.3
2016-06-01T09:05:59.895Z,68.08
2016-06-01T09:06:59.898Z,68.59
2016-06-01T09:07:59.900Z,68.56
2016-06-01T09:09:00.450Z,68.98
2016-06-01T09:09:59.921Z,68.98
2016-06-01T09:10:59.924Z,68.63
2016-06-01T09:11:59.927Z,68.33
2016-06-01T09:12:59.930Z,67.66
2016-06-01T09:13:59.933Z,66.5
2016-06-01T09:14:59.935Z,67.21
2016-06-01T09:15:59.939Z,65.85
2016-06-01T09:16:59.966Z,64.34
2016-06-01T09:17:59.993Z,63.75
2016-06-01T09:19:00.019Z,64.43
2016-06-01T09:20:00.047Z,65.4
2016-06-01T09:21:00.072Z,64.14
2016-06-01T09:22:00.084Z,64.43
2016-06-01T09:23:00.094Z,64.34
2016-06-01T09:24:00.122Z,64.37
2016-06-01T09:24:59.976Z,63.78
2016-06-01T09:26:00.159Z,62.23
2016-06-01T09:27:00.134Z,62.13
2016-06-01T09:28:00.156Z,60.1
2016-06-01T09:29:00.161Z,60.52
2016-06-01T09:30:00.167Z,61.52
2016-06-01T09:31:00.282Z,59.8
2016-06-01T09:32:00.176Z,58.57
2016-06-01T09:33:00.196Z,57.72
2016-06-01T09:34:00.185Z,56.22
2016-06-01T09:35:00.203Z,53.52
2016-06-01T09:36:00.207Z,52.77
2016-06-01T09:37:00.210Z,52.58
2016-06-01T09:38:00.213Z,52.84
2016-06-01T09:39:00.216Z,52.75
2016-06-01T09:40:00.219Z,52.16
2016-06-01T09:41:00.066Z,52.33
2016-06-01T09:42:00.226Z,52.04
2016-06-01T09:43:00.229Z,52.89
2016-06-01T09:44:00.231Z,53.77
2016-06-01T09:45:00.234Z,53.38
2016-06-01T09:46:00.253Z,52.89
2016-06-01T09:47:00.256Z,53.18
2016-06-01T09:48:00.243Z,52.47
2016-06-01T09:49:00.246Z,52.67
2016-06-01T09:50:00.264Z,52.76
2016-06-01T09:51:00.267Z,51.97
2016-06-01T09:52:00.270Z,52.15
2016-06-01T09:53:00.273Z,51.97
2016-06-01T09:54:00.275Z,51.06
2016-06-01T09:55:00.871Z,50.84
2016-06-01T09:56:00.296Z,51.04
2016-06-01T09:57:00.283Z,51.31
2016-06-01T09:58:00.286Z,50.92
2016-06-01T09:59:00.147Z,50.7
2016-06-01T10:00:00.306Z,49.24
2016-06-01T10:01:00.309Z,49.34
2016-06-01T10:02:00.328Z,48.95
2016-06-01T10:03:00.315Z,48.57
2016-06-01T10:04:00.333Z,48.85
2016-06-01T10:05:00.319Z,48.27
2016-06-01T10:06:00.323Z,48.18
2016-06-01T10:07:00.341Z,48.35
2016-06-01T10:08:00.328Z,47.77
2016-06-01T10:09:00.409Z,47.55
2016-06-01T10:10:01.021Z,48.03
2016-06-01T10:11:00.352Z,47.45
2016-06-01T10:12:00.355Z,46.77
2016-06-01T10:13:00.342Z,46.48
2016-06-01T10:14:00.360Z,46.67
2016-06-01T10:15:00.362Z,46.67
2016-06-01T10:16:00.366Z,46.29
2016-06-01T10:17:00.368Z,46
2016-06-01T10:18:00.370Z,45.25
2016-06-01T10:19:00.373Z,44.67
2016-06-01T10:20:00.376Z,44.2
2016-06-01T10:21:00.395Z,43.82
2016-06-01T10:22:00.397Z,42.94
2016-06-01T10:23:00.243Z,42.75
2016-06-01T10:24:00.575Z,42.07
2016-06-01T10:25:01.671Z,41.89
2016-06-01T10:26:00.409Z,41.41
2016-06-01T10:27:00.411Z,40.64
2016-06-01T10:28:00.413Z,40.17
2016-06-01T10:29:00.416Z,39.51
2016-06-01T10:30:00.434Z,39.61
2016-06-01T10:31:00.265Z,38.65
2016-06-01T10:32:00.439Z,38.46
2016-06-01T10:33:00.286Z,37.51
2016-06-01T10:34:00.445Z,37.02
2016-06-01T10:35:00.448Z,35.88
2016-06-01T10:36:00.450Z,35.39
2016-06-01T10:37:00.469Z,35.17
2016-06-01T10:38:00.471Z,35.47
2016-06-01T10:39:00.459Z,35.76
2016-06-01T10:40:00.461Z,35.66
2016-06-01T10:41:00.463Z,35.86
2016-06-01T10:42:00.327Z,35.86
2016-06-01T10:43:00.329Z,35.84
2016-06-01T10:44:00.488Z,35.94
2016-06-01T10:45:00.490Z,35.66
2016-06-01T10:46:00.493Z,35.76
2016-06-01T10:47:00.495Z,35.47
2016-06-01T10:48:00.358Z,35.06
2016-06-01T10:49:00.517Z,34.77
2016-06-01T10:50:00.520Z,34.97
2016-06-01T10:51:00.523Z,35.06
2016-06-01T10:52:00.526Z,34.79
2016-06-01T10:53:00.528Z,34.2
2016-06-01T10:54:00.530Z,31.98
2016-06-01T10:55:00.392Z,31.6
2016-06-01T10:56:00.536Z,30.72
2016-06-01T10:57:00.398Z,30.52
2016-06-01T10:58:00.541Z,30.91
2016-06-01T10:59:00.544Z,31.68
2016-06-01T11:00:00.562Z,31.87
2016-06-01T11:01:00.565Z,32.17
2016-06-01T11:02:00.568Z,31.38
2016-06-01T11:03:00.569Z,32.07
2016-06-01T11:04:00.572Z,31.68
2016-06-01T11:05:00.575Z,31.97
2016-06-01T11:06:00.594Z,31.38
2016-06-01T11:07:00.596Z,31.68
2016-06-01T11:08:00.599Z,31.4
2016-06-01T11:09:00.602Z,31.1
2016-06-01T11:10:00.605Z,31.87
2016-06-01T11:11:00.607Z,32.64
2016-06-01T11:12:00.454Z,32.81
2016-06-01T11:13:00.612Z,33.11
2016-06-01T11:14:00.459Z,32.81
2016-06-01T11:15:00.633Z,33.18
2016-06-01T11:16:00.636Z,33.18
2016-06-01T11:17:00.638Z,33.96
2016-06-01T11:18:00.641Z,34.43
2016-06-01T11:19:00.644Z,34.99
2016-06-01T11:20:00.647Z,35.28
2016-06-01T11:21:00.665Z,35.86
2016-06-01T11:22:00.668Z,35.85
2016-06-01T11:23:00.654Z,35.94
2016-06-01T11:24:00.657Z,35.94
2016-06-01T11:25:00.676Z,35.85
2016-06-01T11:26:00.663Z,36.33
2016-06-01T11:27:00.681Z,36.62
2016-06-01T11:28:00.700Z,36.72
2016-06-01T11:29:00.671Z,36.8
2016-06-01T11:30:00.690Z,37.75
2016-06-01T11:31:00.692Z,37.65
2016-06-01T11:32:00.694Z,38.62
2016-06-01T11:33:00.697Z,38.41
2016-06-01T11:34:00.700Z,38.7
2016-06-01T11:35:00.719Z,38.89
2016-06-01T11:36:00.722Z,38.91
2016-06-01T11:37:00.725Z,39.59
2016-06-01T11:38:00.727Z,39.49
2016-06-01T11:39:00.730Z,38.53
2016-06-01T11:40:01.201Z,38.91
2016-06-01T11:41:00.735Z,38.79
2016-06-01T11:42:00.737Z,39.47
2016-06-01T11:43:00.771Z,39.18
2016-06-01T11:44:00.758Z,39.47
2016-06-01T11:45:00.746Z,39.57
2016-06-01T11:46:00.764Z,39.47
2016-06-01T11:47:00.594Z,39.2
2016-06-01T11:48:00.754Z,39.2
2016-06-01T11:49:00.772Z,39.29
2016-06-01T11:50:00.774Z,39.2
2016-06-01T11:51:00.777Z,39.39
2016-06-01T11:52:00.780Z,39.49
2016-06-01T11:53:00.782Z,39.29
2016-06-01T11:54:00.785Z,39.29
2016-06-01T11:55:00.787Z,38.43
2016-06-01T11:56:00.790Z,38.25
2016-06-01T11:57:00.809Z,38.06
2016-06-01T11:58:00.796Z,37.59
2016-06-01T11:59:00.814Z,37.69
2016-06-01T12:00:00.817Z,38.07
2016-06-01T12:01:00.664Z,37.51
2016-06-01T12:02:00.823Z,37.32
2016-06-01T12:03:00.825Z,36.16
2016-06-01T12:04:00.828Z,35.57
2016-06-01T12:05:00.831Z,35.28
2016-06-01T12:06:00.678Z,35.57
2016-06-01T12:07:00.835Z,35.59
2016-06-01T12:08:00.839Z,35.3
2016-06-01T12:09:00.842Z,35.11
2016-06-01T12:10:01.563Z,35.21
2016-06-01T12:11:00.846Z,34.72
2016-06-01T12:12:00.866Z,35.11
2016-06-01T12:13:00.868Z,34.35
2016-06-01T12:14:00.871Z,33.38
2016-06-01T12:15:00.874Z,33.09
2016-06-01T12:16:00.876Z,31.92
2016-06-01T12:17:00.879Z,31.07
2016-06-01T12:18:00.881Z,30.85
2016-06-01T12:19:00.899Z,30.48
2016-06-01T12:20:00.918Z,30.19
2016-06-01T12:21:00.904Z,30.09
2016-06-01T12:22:00.907Z,30.38
2016-06-01T12:23:00.754Z,30.48
2016-06-01T12:24:00.913Z,30.38
2016-06-01T12:25:00.931Z,30.38
2016-06-01T12:26:00.918Z,30.21
2016-06-01T12:27:00.921Z,30.3
2016-06-01T12:28:00.923Z,30.4
2016-06-01T12:29:00.943Z,30.22
2016-06-01T12:30:00.929Z,30.22
2016-06-01T12:31:00.947Z,29.93
2016-06-01T12:32:00.951Z,29.35
2016-06-01T12:33:00.797Z,29.25
2016-06-01T12:34:00.955Z,29.06
2016-06-01T12:35:00.958Z,28.88
2016-06-01T12:36:00.961Z,29.06
2016-06-01T12:37:00.963Z,29.26
2016-06-01T12:38:00.967Z,29.46
2016-06-01T12:39:00.969Z,29.55
2016-06-01T12:40:01.237Z,29.75
2016-06-01T12:41:00.975Z,29.57
2016-06-01T12:42:00.992Z,29.47
2016-06-01T12:43:00.995Z,29.08
2016-06-01T12:44:01.014Z,29.19
2016-06-01T12:45:00.844Z,29.29
2016-06-01T12:46:01.002Z,29.39
2016-06-01T12:47:01.006Z,29.02
2016-06-01T12:48:01.024Z,28.33
2016-06-01T12:49:01.011Z,27.84
2016-06-01T12:50:01.030Z,27.65
2016-06-01T12:51:01.032Z,27.84
2016-06-01T12:52:01.035Z,27.94
2016-06-01T12:53:01.038Z,27.75
2016-06-01T12:54:01.025Z,27.65